createdAt,value
2022-09-23T00:02:03.403Z,7.92
2022-09-23T00:06:08.464Z,8.06
2022-09-23T00:10:11.299Z,8.03
2022-09-23T00:14:13.656Z,8.03
2022-09-23T00:18:15.959Z,7.99
2022-09-23T00:22:17.926Z,7.87
2022-09-23T00:26:22.468Z,7.88
2022-09-23T00:30:24.866Z,7.75
2022-09-23T00:34:26.973Z,7.68
2022-09-23T00:38:29.105Z,7.64
2022-09-23T00:42:52.213Z,7.59
2022-09-23T00:46:54.254Z,7.47
2022-09-23T00:50:56.458Z,7.46
2022-09-23T00:55:02.480Z,7.39
2022-09-23T00:59:06.971Z,7.44
2022-09-23T01:03:09.658Z,7.43
2022-09-23T01:07:12.205Z,7.34
2022-09-23T01:11:14.929Z,7.41
2022-09-23T01:15:20.477Z,7.05
2022-09-23T01:19:57.232Z,7.00
2022-09-23T01:24:45.194Z,6.74
2022-09-23T01:29:17.826Z,6.68
2022-09-23T01:33:23.175Z,6.63
2022-09-23T01:37:35.966Z,6.64
2022-09-23T01:41:52.019Z,6.77
2022-09-23T01:45:58.526Z,6.88
2022-09-23T01:50:33.490Z,6.87
2022-09-23T01:54:45.537Z,7.03
2022-09-23T01:58:50.596Z,6.89
2022-09-23T02:02:57.773Z,6.87
2022-09-23T02:07:15.166Z,7.01
2022-09-23T02:11:18.294Z,7.02
2022-09-23T02:15:31.241Z,6.95
2022-09-23T02:19:47.951Z,7.04
2022-09-23T02:23:55.483Z,6.51
2022-09-23T02:28:08.927Z,6.34
2022-09-23T02:32:18.094Z,6.52
2022-09-23T02:36:30.059Z,6.64
2022-09-23T02:40:38.856Z,6.65
2022-09-23T02:44:41.094Z,6.57
2022-09-23T02:49:11.152Z,6.45
2022-09-23T02:53:14.077Z,6.32
2022-09-23T02:57:17.275Z,6.43
2022-09-23T03:01:39.303Z,6.45
2022-09-23T03:05:51.399Z,6.46
2022-09-23T03:10:22.779Z,6.43
2022-09-23T03:14:49.765Z,6.41
2022-09-23T03:19:00.923Z,6.38
2022-09-23T03:23:08.879Z,6.34
2022-09-23T03:27:17.921Z,6.35
2022-09-23T03:31:20.136Z,6.33
2022-09-23T03:35:27.440Z,6.24
2022-09-23T03:39:43.043Z,6.36
2022-09-23T03:43:46.049Z,6.32
2022-09-23T03:47:48.084Z,6.28
2022-09-23T03:51:50.358Z,6.35
2022-09-23T03:55:52.401Z,6.35
2022-09-23T03:59:54.368Z,6.37
2022-09-23T04:03:56.341Z,6.29
2022-09-23T04:07:58.324Z,6.27
2022-09-23T04:12:01.365Z,6.27
2022-09-23T04:16:03.752Z,6.09
2022-09-23T04:20:06.559Z,6.25
2022-09-23T04:24:09.491Z,6.13
2022-09-23T04:28:11.646Z,6.10
2022-09-23T04:32:13.755Z,6.03
2022-09-23T04:36:17.474Z,6.09
2022-09-23T04:40:19.556Z,5.72
2022-09-23T04:44:22.153Z,5.68
2022-09-23T04:48:24.621Z,5.81
2022-09-23T04:52:27.413Z,5.76
2022-09-23T04:56:33.793Z,5.71
2022-09-23T05:00:36.737Z,5.77
2022-09-23T05:04:39.368Z,5.78
2022-09-23T05:08:46.646Z,5.72
2022-09-23T05:12:51.450Z,5.77
2022-09-23T05:16:55.536Z,5.83
2022-09-23T05:20:58.481Z,5.79
2022-09-23T05:25:01.835Z,5.82
2022-09-23T05:29:04.013Z,5.88
2022-09-23T05:33:05.927Z,6.04
2022-09-23T05:37:07.936Z,6.21
2022-09-23T05:41:12.677Z,6.31
2022-09-23T05:45:15.341Z,6.22
2022-09-23T05:49:17.261Z,6.09
2022-09-23T05:53:19.743Z,6.31
2022-09-23T05:57:21.731Z,6.58
2022-09-23T06:01:26.171Z,6.85
2022-09-23T06:05:28.171Z,7.12
2022-09-23T06:09:35.554Z,7.26
2022-09-23T06:13:39.384Z,7.56
2022-09-23T06:17:41.334Z,7.72
2022-09-23T06:21:43.274Z,7.85
2022-09-23T06:25:45.226Z,8.00
2022-09-23T06:29:47.335Z,8.23
2022-09-23T06:33:49.971Z,8.50
2022-09-23T06:37:53.419Z,8.69
2022-09-23T06:41:55.398Z,8.94
2022-09-23T06:46:01.751Z,9.15
2022-09-23T06:50:04.427Z,9.36
2022-09-23T06:54:06.464Z,9.56
2022-09-23T06:58:09.092Z,9.75
2022-09-23T07:02:12.427Z,9.99
2022-09-23T07:06:14.811Z,10.20
2022-09-23T07:10:17.023Z,10.44
2022-09-23T07:14:19.058Z,10.73
2022-09-23T07:18:24.056Z,10.97
2022-09-23T07:22:27.076Z,11.19
2022-09-23T07:26:29.648Z,11.48
2022-09-23T07:30:31.604Z,11.70
2022-09-23T07:34:33.540Z,11.96
2022-09-23T07:38:36.550Z,12.14
2022-09-23T07:42:40.791Z,12.57
2022-09-23T07:46:42.925Z,12.70
2022-09-23T07:50:44.894Z,12.88
2022-09-23T07:54:47.909Z,13.17
2022-09-23T07:59:03.794Z,13.39
2022-09-23T08:03:05.857Z,13.70
2022-09-23T08:07:09.118Z,14.21
2022-09-23T08:11:14.431Z,14.61
2022-09-23T08:15:17.743Z,14.78
2022-09-23T08:19:20.301Z,15.02
2022-09-23T08:23:22.785Z,15.26
2022-09-23T08:27:25.090Z,15.43
2022-09-23T08:31:27.585Z,15.55
2022-09-23T08:35:29.614Z,15.70
2022-09-23T08:39:31.556Z,15.83
2022-09-23T08:43:36.357Z,15.98
2022-09-23T08:47:53.049Z,16.17
2022-09-23T08:51:56.222Z,16.36
2022-09-23T08:55:59.679Z,16.37
2022-09-23T09:00:02.998Z,16.43
2022-09-23T09:04:49.644Z,16.52
2022-09-23T09:08:57.125Z,16.58
2022-09-23T09:13:10.813Z,16.69
2022-09-23T09:17:35.218Z,16.88
2022-09-23T09:21:42.606Z,17.07
2022-09-23T09:25:49.388Z,17.22
2022-09-23T09:29:54.652Z,17.35
2022-09-23T09:34:06.562Z,17.38
2022-09-23T09:38:08.869Z,17.47
2022-09-23T09:42:20.274Z,17.64
2022-09-23T09:46:50.411Z,17.60
2022-09-23T09:50:53.822Z,17.70
2022-09-23T09:55:27.104Z,17.69
2022-09-23T09:59:29.943Z,17.82
2022-09-23T10:03:38.030Z,17.92
2022-09-23T10:07:40.003Z,18.01
2022-09-23T10:11:42.270Z,17.95
2022-09-23T10:15:45.477Z,18.00
2022-09-23T10:19:50.806Z,18.17
2022-09-23T10:23:58.315Z,18.35
2022-09-23T10:28:50.325Z,18.41
2022-09-23T10:32:55.041Z,18.45
2022-09-23T10:37:27.897Z,18.57
2022-09-23T10:41:57.340Z,18.67
2022-09-23T10:46:24.591Z,18.75
2022-09-23T10:50:39.667Z,19.03
2022-09-23T10:55:02.812Z,18.99
2022-09-23T10:59:35.579Z,19.02
2022-09-23T11:03:58.534Z,19.06
2022-09-23T11:08:31.668Z,19.19
2022-09-23T11:13:11.344Z,19.19
2022-09-23T11:17:41.196Z,19.37
2022-09-23T11:21:58.378Z,19.58
2022-09-23T11:26:20.171Z,19.53
2022-09-23T11:30:22.241Z,19.63
2022-09-23T11:34:43.152Z,19.89
2022-09-23T11:38:48.967Z,19.99
2022-09-23T11:42:58.125Z,20.06
2022-09-23T11:47:07.713Z,20.00
2022-09-23T11:51:32.496Z,19.97
2022-09-23T11:55:57.873Z,20.11
2022-09-23T12:00:04.609Z,20.23
2022-09-23T12:04:21.346Z,20.28
2022-09-23T12:08:30.872Z,20.38
2022-09-23T12:12:55.383Z,20.57
2022-09-23T12:16:58.243Z,20.61
2022-09-23T12:21:45.698Z,20.60
2022-09-23T12:25:46.776Z,20.63
2022-09-23T12:29:54.756Z,20.66
2022-09-23T12:33:59.374Z,20.76
2022-09-23T12:38:04.466Z,20.87
2022-09-23T12:42:30.752Z,20.87
2022-09-23T12:46:33.131Z,20.78
2022-09-23T12:51:02.908Z,20.80
2022-09-23T12:55:26.476Z,20.83
2022-09-23T12:59:31.200Z,21.02
2022-09-23T13:04:11.494Z,21.10
2022-09-23T13:08:18.595Z,21.22
2022-09-23T13:12:34.691Z,21.38
2022-09-23T13:16:43.781Z,21.26
2022-09-23T13:20:47.152Z,21.10
2022-09-23T13:25:01.460Z,20.99
2022-09-23T13:29:04.645Z,20.92
2022-09-23T13:33:14.263Z,20.95
2022-09-23T13:37:22.875Z,21.01
2022-09-23T13:41:28.880Z,21.14
2022-09-23T13:45:32.375Z,21.23
2022-09-23T13:49:36.585Z,21.37
2022-09-23T13:53:38.771Z,21.44
2022-09-23T13:57:40.862Z,21.59
2022-09-23T14:01:43.431Z,21.67
2022-09-23T14:05:46.280Z,21.68
2022-09-23T14:09:51.254Z,21.72
2022-09-23T14:13:55.052Z,21.64
2022-09-23T14:18:06.620Z,21.63
2022-09-23T14:22:25.662Z,21.62
2022-09-23T14:26:27.591Z,21.74
2022-09-23T14:30:30.738Z,21.68
2022-09-23T14:35:01.014Z,21.58
2022-09-23T14:39:05.480Z,21.60
2022-09-23T14:43:25.242Z,21.55
2022-09-23T14:47:27.526Z,21.45
2022-09-23T14:51:37.641Z,21.60
2022-09-23T14:55:40.842Z,21.59
2022-09-23T14:59:51.584Z,21.59
2022-09-23T15:03:55.691Z,21.58
2022-09-23T15:08:00.772Z,21.67
2022-09-23T15:12:07.063Z,21.87
2022-09-23T15:16:09.425Z,21.96
2022-09-23T15:20:23.012Z,22.05
2022-09-23T15:24:37.692Z,22.11
2022-09-23T15:28:39.907Z,22.06
2022-09-23T15:32:42.786Z,22.21
2022-09-23T15:36:45.060Z,22.09
2022-09-23T15:40:47.586Z,22.15
2022-09-23T15:44:50.395Z,22.35
2022-09-23T15:49:00.154Z,22.59
2022-09-23T15:53:02.211Z,22.80
2022-09-23T15:57:04.259Z,23.83
2022-09-23T16:01:06.670Z,24.56
2022-09-23T16:05:23.634Z,24.78
2022-09-23T16:09:28.290Z,25.17
2022-09-23T16:13:30.438Z,25.67
2022-09-23T16:17:32.429Z,25.96
2022-09-23T16:21:34.651Z,25.41
2022-09-23T16:25:37.560Z,24.68
2022-09-23T16:29:39.547Z,23.81
2022-09-23T16:33:51.812Z,23.05
2022-09-23T16:37:59.732Z,22.49
2022-09-23T16:42:02.199Z,22.08
2022-09-23T16:46:04.435Z,21.75
2022-09-23T16:50:06.809Z,21.28
2022-09-23T16:54:12.951Z,20.80
2022-09-23T16:58:15.092Z,20.30
2022-09-23T17:02:35.769Z,19.79
2022-09-23T17:06:50.283Z,19.18
2022-09-23T17:10:58.705Z,18.62
2022-09-23T17:15:03.943Z,18.22
2022-09-23T17:19:08.513Z,18.02
2022-09-23T17:23:10.488Z,17.63
2022-09-23T17:27:12.548Z,17.15
2022-09-23T17:31:14.802Z,16.88
2022-09-23T17:35:17.466Z,16.50
2022-09-23T17:39:19.602Z,16.25
2022-09-23T17:43:25.925Z,16.06
2022-09-23T17:47:27.905Z,15.90
2022-09-23T17:51:30.562Z,15.82
2022-09-23T17:55:32.687Z,15.84
2022-09-23T17:59:34.796Z,15.88
2022-09-23T18:03:37.047Z,15.53
2022-09-23T18:07:39.555Z,15.24
2022-09-23T18:11:45.055Z,15.14
2022-09-23T18:15:47.118Z,14.81
2022-09-23T18:19:49.687Z,14.64
2022-09-23T18:23:51.984Z,14.39
2022-09-23T18:27:54.105Z,14.05
2022-09-23T18:32:16.777Z,13.83
2022-09-23T18:36:25.650Z,13.60
2022-09-23T18:40:27.611Z,13.50
2022-09-23T18:44:29.558Z,13.43
2022-09-23T18:48:51.502Z,13.33
2022-09-23T18:52:53.363Z,13.09
2022-09-23T18:56:56.595Z,13.07
2022-09-23T19:01:07.161Z,12.81
2022-09-23T19:05:09.331Z,12.63
2022-09-23T19:09:12.267Z,12.64
2022-09-23T19:13:14.336Z,12.58
2022-09-23T19:17:16.804Z,12.46
2022-09-23T19:21:21.843Z,12.62
2022-09-23T19:25:23.962Z,12.61
2022-09-23T19:29:27.312Z,12.62
2022-09-23T19:33:29.338Z,12.35
2022-09-23T19:37:31.912Z,12.22
2022-09-23T19:41:35.541Z,12.05
2022-09-23T19:45:38.521Z,12.15
2022-09-23T19:49:40.542Z,12.12
2022-09-23T19:53:43.443Z,12.06
2022-09-23T19:57:45.805Z,11.78
2022-09-23T20:01:48.955Z,11.85
2022-09-23T20:05:57.397Z,11.60
2022-09-23T20:09:59.759Z,11.28
2022-09-23T20:14:04.881Z,11.26
2022-09-23T20:18:07.073Z,11.25
2022-09-23T20:22:33.103Z,11.30
2022-09-23T20:27:10.596Z,11.32
2022-09-23T20:31:13.034Z,11.04
2022-09-23T20:35:16.433Z,10.66
2022-09-23T20:39:18.652Z,10.81
2022-09-23T20:43:20.656Z,10.75
2022-09-23T20:47:24.326Z,10.80
2022-09-23T20:51:26.378Z,10.88
2022-09-23T20:55:29.338Z,10.85
2022-09-23T20:59:31.410Z,10.68
2022-09-23T21:03:33.636Z,10.73
2022-09-23T21:07:35.870Z,10.61
2022-09-23T21:11:38.553Z,10.33
2022-09-23T21:15:41.776Z,10.31
2022-09-23T21:19:43.696Z,10.43
2022-09-23T21:23:46.699Z,10.35
2022-09-23T21:27:52.433Z,10.30
2022-09-23T21:31:54.715Z,9.97
2022-09-23T21:36:05.949Z,9.77
2022-09-23T21:40:27.174Z,9.59
2022-09-23T21:44:29.504Z,9.73
2022-09-23T21:48:33.767Z,9.85
2022-09-23T21:52:36.050Z,9.93
2022-09-23T21:56:38.021Z,9.95
2022-09-23T22:00:39.988Z,10.00
2022-09-23T22:04:42.120Z,9.94
2022-09-23T22:08:44.347Z,10.01
2022-09-23T22:12:48.542Z,10.05
2022-09-23T22:16:50.506Z,9.98
2022-09-23T22:20:54.735Z,9.91
2022-09-23T22:24:56.818Z,9.87
2022-09-23T22:29:17.993Z,9.41
2022-09-23T22:33:19.944Z,9.18
2022-09-23T22:37:27.803Z,9.24
2022-09-23T22:41:30.265Z,9.22
2022-09-23T22:45:32.604Z,9.16
2022-09-23T22:49:35.281Z,9.09
2022-09-23T22:53:37.208Z,9.22
2022-09-23T22:57:39.477Z,9.35
2022-09-23T23:01:41.970Z,9.47
2022-09-23T23:05:45.790Z,9.51
2022-09-23T23:09:49.642Z,9.56
2022-09-23T23:13:51.601Z,9.59
2022-09-23T23:17:53.775Z,9.56
2022-09-23T23:21:55.671Z,9.59
2022-09-23T23:25:57.759Z,9.54
2022-09-23T23:29:59.686Z,9.43
2022-09-23T23:34:01.810Z,9.32
2022-09-23T23:38:06.116Z,9.29
2022-09-23T23:42:08.031Z,9.23
2022-09-23T23:46:10.506Z,9.03
2022-09-23T23:50:12.532Z,9.12
2022-09-23T23:54:15.367Z,9.19
2022-09-23T23:58:18.473Z,9.21
